sensor_id;sensor_type;location;lat;lon;timestamp;temperature;humidity
54158;DHT22;40065;49.894;10.358;2023-04-24T00:01:35;12.50;99.90
54158;DHT22;40065;49.894;10.358;2023-04-24T00:06:38;12.40;99.90
54158;DHT22;40065;49.894;10.358;2023-04-24T00:11:40;12.50;99.90
54158;DHT22;40065;49.894;10.358;2023-04-24T00:16:42;12.40;99.90
54158;DHT22;40065;49.894;10.358;2023-04-24T00:21:44;12.40;99.90
54158;DHT22;40065;49.894;10.358;2023-04-24T00:26:46;12.50;99.90
54158;DHT22;40065;49.894;10.358;2023-04-24T00:31:48;12.50;99.90
54158;DHT22;40065;49.894;10.358;2023-04-24T00:36:50;12.40;99.90
54158;DHT22;40065;49.894;10.358;2023-04-24T00:41:53;12.40;99.90
54158;DHT22;40065;49.894;10.358;2023-04-24T00:46:55;12.40;99.90
54158;DHT22;40065;49.894;10.358;2023-04-24T00:51:57;12.40;99.90
54158;DHT22;40065;49.894;10.358;2023-04-24T00:57:04;12.40;99.90
54158;DHT22;40065;49.894;10.358;2023-04-24T01:02:07;12.30;99.90
54158;DHT22;40065;49.894;10.358;2023-04-24T01:07:10;12.40;99.90
54158;DHT22;40065;49.894;10.358;2023-04-24T01:12:13;12.30;99.90
54158;DHT22;40065;49.894;10.358;2023-04-24T01:17:15;12.40;99.90
54158;DHT22;40065;49.894;10.358;2023-04-24T01:22:16;12.40;99.90
54158;DHT22;40065;49.894;10.358;2023-04-24T01:27:19;12.30;99.90
54158;DHT22;40065;49.894;10.358;2023-04-24T01:32:21;12.20;99.90
54158;DHT22;40065;49.894;10.358;2023-04-24T01:37:23;12.20;99.90
54158;DHT22;40065;49.894;10.358;2023-04-24T01:42:26;12.10;99.90
54158;DHT22;40065;49.894;10.358;2023-04-24T01:47:28;12.00;99.90
54158;DHT22;40065;49.894;10.358;2023-04-24T01:52:32;12.00;99.90
54158;DHT22;40065;49.894;10.358;2023-04-24T01:57:35;12.00;99.90
54158;DHT22;40065;49.894;10.358;2023-04-24T02:02:38;11.80;99.90
54158;DHT22;40065;49.894;10.358;2023-04-24T02:07:40;11.90;99.90
54158;DHT22;40065;49.894;10.358;2023-04-24T02:12:43;11.90;99.90
54158;DHT22;40065;49.894;10.358;2023-04-24T02:17:45;11.90;99.90
54158;DHT22;40065;49.894;10.358;2023-04-24T02:22:46;12.10;99.90
54158;DHT22;40065;49.894;10.358;2023-04-24T02:27:48;12.10;99.90
54158;DHT22;40065;49.894;10.358;2023-04-24T02:32:50;12.20;99.90
54158;DHT22;40065;49.894;10.358;2023-04-24T02:37:52;12.10;99.90
54158;DHT22;40065;49.894;10.358;2023-04-24T02:42:54;11.90;99.90
54158;DHT22;40065;49.894;10.358;2023-04-24T02:47:58;11.80;99.90
54158;DHT22;40065;49.894;10.358;2023-04-24T02:53:00;12.00;99.90
54158;DHT22;40065;49.894;10.358;2023-04-24T02:58:02;11.80;99.90
54158;DHT22;40065;49.894;10.358;2023-04-24T03:03:04;11.80;99.90
54158;DHT22;40065;49.894;10.358;2023-04-24T03:08:07;11.80;99.90
54158;DHT22;40065;49.894;10.358;2023-04-24T03:13:09;11.90;99.90
54158;DHT22;40065;49.894;10.358;2023-04-24T03:18:11;11.90;99.90
54158;DHT22;40065;49.894;10.358;2023-04-24T03:23:13;11.90;99.90
54158;DHT22;40065;49.894;10.358;2023-04-24T03:28:15;12.00;99.90
54158;DHT22;40065;49.894;10.358;2023-04-24T03:33:21;12.00;99.90
54158;DHT22;40065;49.894;10.358;2023-04-24T03:38:32;12.00;99.90
54158;DHT22;40065;49.894;10.358;2023-04-24T03:43:54;12.00;99.90
54158;DHT22;40065;49.894;10.358;2023-04-24T03:48:56;11.90;99.90
54158;DHT22;40065;49.894;10.358;2023-04-24T03:54:03;11.90;99.90
54158;DHT22;40065;49.894;10.358;2023-04-24T03:59:08;11.70;99.90
54158;DHT22;40065;49.894;10.358;2023-04-24T04:04:11;11.70;99.90
54158;DHT22;40065;49.894;10.358;2023-04-24T04:09:14;11.70;99.90
54158;DHT22;40065;49.894;10.358;2023-04-24T04:14:16;11.60;99.90
54158;DHT22;40065;49.894;10.358;2023-04-24T04:19:21;11.60;99.90
54158;DHT22;40065;49.894;10.358;2023-04-24T04:24:23;11.60;99.90
54158;DHT22;40065;49.894;10.358;2023-04-24T04:29:26;11.60;99.90
54158;DHT22;40065;49.894;10.358;2023-04-24T04:34:28;11.60;99.90
54158;DHT22;40065;49.894;10.358;2023-04-24T04:39:31;11.70;99.90
54158;DHT22;40065;49.894;10.358;2023-04-24T04:44:36;11.70;99.90
54158;DHT22;40065;49.894;10.358;2023-04-24T04:49:39;11.60;99.90
54158;DHT22;40065;49.894;10.358;2023-04-24T04:54:47;11.50;99.90
54158;DHT22;40065;49.894;10.358;2023-04-24T04:59:49;11.70;99.90
54158;DHT22;40065;49.894;10.358;2023-04-24T05:05:01;11.70;99.90
54158;DHT22;40065;49.894;10.358;2023-04-24T05:10:03;11.80;99.90
54158;DHT22;40065;49.894;10.358;2023-04-24T05:15:06;11.90;99.90
54158;DHT22;40065;49.894;10.358;2023-04-24T05:20:08;12.00;99.90
54158;DHT22;40065;49.894;10.358;2023-04-24T05:25:12;12.00;99.90
54158;DHT22;40065;49.894;10.358;2023-04-24T05:30:20;12.00;99.90
54158;DHT22;40065;49.894;10.358;2023-04-24T05:35:24;11.80;99.90
54158;DHT22;40065;49.894;10.358;2023-04-24T05:40:25;11.90;99.90
54158;DHT22;40065;49.894;10.358;2023-04-24T05:45:27;12.00;99.90
54158;DHT22;40065;49.894;10.358;2023-04-24T05:50:29;11.90;99.90
54158;DHT22;40065;49.894;10.358;2023-04-24T05:55:31;11.90;99.90
54158;DHT22;40065;49.894;10.358;2023-04-24T06:00:34;11.90;99.90
54158;DHT22;40065;49.894;10.358;2023-04-24T06:05:40;12.00;99.90
54158;DHT22;40065;49.894;10.358;2023-04-24T06:10:42;12.20;99.90
54158;DHT22;40065;49.894;10.358;2023-04-24T06:15:45;12.30;99.90
54158;DHT22;40065;49.894;10.358;2023-04-24T06:20:54;12.40;99.90
54158;DHT22;40065;49.894;10.358;2023-04-24T06:25:58;12.30;99.90
54158;DHT22;40065;49.894;10.358;2023-04-24T06:31:00;12.50;99.90
54158;DHT22;40065;49.894;10.358;2023-04-24T06:36:02;12.40;99.90
54158;DHT22;40065;49.894;10.358;2023-04-24T06:41:05;12.60;99.90
54158;DHT22;40065;49.894;10.358;2023-04-24T06:46:07;12.70;99.90
54158;DHT22;40065;49.894;10.358;2023-04-24T06:51:10;14.10;99.90
54158;DHT22;40065;49.894;10.358;2023-04-24T06:56:11;16.60;99.00
54158;DHT22;40065;49.894;10.358;2023-04-24T07:01:14;17.80;96.90
54158;DHT22;40065;49.894;10.358;2023-04-24T07:06:16;19.60;95.70
54158;DHT22;40065;49.894;10.358;2023-04-24T07:11:20;19.50;94.00
54158;DHT22;40065;49.894;10.358;2023-04-24T07:16:22;18.10;94.30
54158;DHT22;40065;49.894;10.358;2023-04-24T07:21:24;17.70;94.90
54158;DHT22;40065;49.894;10.358;2023-04-24T07:26:29;19.80;92.50
54158;DHT22;40065;49.894;10.358;2023-04-24T07:31:31;18.50;92.10
54158;DHT22;40065;49.894;10.358;2023-04-24T07:36:33;17.30;94.50
54158;DHT22;40065;49.894;10.358;2023-04-24T07:41:35;17.00;93.60
54158;DHT22;40065;49.894;10.358;2023-04-24T07:46:36;16.80;94.70
54158;DHT22;40065;49.894;10.358;2023-04-24T07:51:39;18.50;90.80
54158;DHT22;40065;49.894;10.358;2023-04-24T07:56:43;17.50;91.20
54158;DHT22;40065;49.894;10.358;2023-04-24T08:01:45;18.20;90.70
54158;DHT22;40065;49.894;10.358;2023-04-24T08:06:48;17.20;92.50
54158;DHT22;40065;49.894;10.358;2023-04-24T08:11:49;15.90;93.30
54158;DHT22;40065;49.894;10.358;2023-04-24T08:16:54;15.00;94.80
54158;DHT22;40065;49.894;10.358;2023-04-24T08:21:57;14.30;96.70
54158;DHT22;40065;49.894;10.358;2023-04-24T08:26:59;14.10;97.50
54158;DHT22;40065;49.894;10.358;2023-04-24T08:32:01;13.70;98.30
54158;DHT22;40065;49.894;10.358;2023-04-24T08:37:03;13.60;98.00
54158;DHT22;40065;49.894;10.358;2023-04-24T08:42:05;13.40;98.20
54158;DHT22;40065;49.894;10.358;2023-04-24T08:47:10;13.70;98.30
54158;DHT22;40065;49.894;10.358;2023-04-24T08:52:15;14.00;97.80
54158;DHT22;40065;49.894;10.358;2023-04-24T08:57:18;14.10;97.90
54158;DHT22;40065;49.894;10.358;2023-04-24T09:02:21;15.90;95.90
54158;DHT22;40065;49.894;10.358;2023-04-24T09:07:25;17.10;94.90
54158;DHT22;40065;49.894;10.358;2023-04-24T09:12:29;15.70;95.90
54158;DHT22;40065;49.894;10.358;2023-04-24T09:17:31;15.70;96.50
54158;DHT22;40065;49.894;10.358;2023-04-24T09:22:33;15.30;96.10
54158;DHT22;40065;49.894;10.358;2023-04-24T09:27:36;15.10;96.70
54158;DHT22;40065;49.894;10.358;2023-04-24T09:32:37;15.20;96.30
54158;DHT22;40065;49.894;10.358;2023-04-24T09:37:46;15.70;94.80
54158;DHT22;40065;49.894;10.358;2023-04-24T09:42:53;15.70;94.20
54158;DHT22;40065;49.894;10.358;2023-04-24T09:47:55;17.10;91.50
54158;DHT22;40065;49.894;10.358;2023-04-24T09:52:59;16.50;92.60
54158;DHT22;40065;49.894;10.358;2023-04-24T09:58:03;17.10;91.50
54158;DHT22;40065;49.894;10.358;2023-04-24T10:03:06;16.90;93.00
54158;DHT22;40065;49.894;10.358;2023-04-24T10:08:11;17.20;92.50
54158;DHT22;40065;49.894;10.358;2023-04-24T10:13:14;15.90;93.00
54158;DHT22;40065;49.894;10.358;2023-04-24T10:18:17;16.30;93.30
54158;DHT22;40065;49.894;10.358;2023-04-24T10:23:24;17.40;90.90
54158;DHT22;40065;49.894;10.358;2023-04-24T10:28:26;18.00;90.30
54158;DHT22;40065;49.894;10.358;2023-04-24T10:33:30;16.70;91.50
54158;DHT22;40065;49.894;10.358;2023-04-24T10:38:32;16.50;92.60
54158;DHT22;40065;49.894;10.358;2023-04-24T10:43:35;16.70;92.00
54158;DHT22;40065;49.894;10.358;2023-04-24T10:48:42;16.50;91.40
54158;DHT22;40065;49.894;10.358;2023-04-24T10:53:44;16.20;91.90
54158;DHT22;40065;49.894;10.358;2023-04-24T10:58:51;17.10;90.70
54158;DHT22;40065;49.894;10.358;2023-04-24T11:03:58;17.60;86.20
54158;DHT22;40065;49.894;10.358;2023-04-24T11:09:09;17.20;89.20
54158;DHT22;40065;49.894;10.358;2023-04-24T11:14:14;16.40;90.90
54158;DHT22;40065;49.894;10.358;2023-04-24T11:34:46;14.40;94.30
54158;DHT22;40065;49.894;10.358;2023-04-24T11:39:51;14.90;94.30
54158;DHT22;40065;49.894;10.358;2023-04-24T11:44:54;16.20;91.60
54158;DHT22;40065;49.894;10.358;2023-04-24T11:50:00;16.00;91.10
54158;DHT22;40065;49.894;10.358;2023-04-24T11:55:03;15.80;90.70
54158;DHT22;40065;49.894;10.358;2023-04-24T12:00:06;15.30;91.90
54158;DHT22;40065;49.894;10.358;2023-04-24T12:05:23;16.00;91.20
54158;DHT22;40065;49.894;10.358;2023-04-24T12:10:28;16.70;90.80
54158;DHT22;40065;49.894;10.358;2023-04-24T12:15:30;15.80;91.20
54158;DHT22;40065;49.894;10.358;2023-04-24T12:20:32;16.10;92.10
54158;DHT22;40065;49.894;10.358;2023-04-24T12:25:34;16.70;91.60
54158;DHT22;40065;49.894;10.358;2023-04-24T12:30:42;16.60;90.80
54158;DHT22;40065;49.894;10.358;2023-04-24T12:35:47;16.90;90.80
54158;DHT22;40065;49.894;10.358;2023-04-24T12:41:01;16.30;91.50
54158;DHT22;40065;49.894;10.358;2023-04-24T12:46:04;15.60;91.90
54158;DHT22;40065;49.894;10.358;2023-04-24T12:51:06;16.10;93.50
54158;DHT22;40065;49.894;10.358;2023-04-24T12:56:08;16.50;90.30
54158;DHT22;40065;49.894;10.358;2023-04-24T13:01:10;17.20;90.10
54158;DHT22;40065;49.894;10.358;2023-04-24T13:06:14;17.50;90.90
54158;DHT22;40065;49.894;10.358;2023-04-24T13:11:16;16.50;89.90
54158;DHT22;40065;49.894;10.358;2023-04-24T13:16:17;16.10;91.50
54158;DHT22;40065;49.894;10.358;2023-04-24T13:21:19;15.70;91.60
54158;DHT22;40065;49.894;10.358;2023-04-24T13:26:21;15.20;92.70
54158;DHT22;40065;49.894;10.358;2023-04-24T13:31:23;14.70;93.70
54158;DHT22;40065;49.894;10.358;2023-04-24T13:36:25;14.50;93.40
54158;DHT22;40065;49.894;10.358;2023-04-24T13:41:27;14.80;92.70
54158;DHT22;40065;49.894;10.358;2023-04-24T13:46:29;14.70;93.30
54158;DHT22;40065;49.894;10.358;2023-04-24T13:51:32;14.90;94.60
54158;DHT22;40065;49.894;10.358;2023-04-24T13:56:34;14.80;95.60
54158;DHT22;40065;49.894;10.358;2023-04-24T14:01:36;14.90;95.40
54158;DHT22;40065;49.894;10.358;2023-04-24T14:06:38;15.50;95.10
54158;DHT22;40065;49.894;10.358;2023-04-24T14:11:40;15.70;93.90
54158;DHT22;40065;49.894;10.358;2023-04-24T14:16:42;16.80;93.80
54158;DHT22;40065;49.894;10.358;2023-04-24T14:21:44;16.50;92.90
54158;DHT22;40065;49.894;10.358;2023-04-24T14:26:45;15.80;94.10
54158;DHT22;40065;49.894;10.358;2023-04-24T14:31:47;15.40;94.50
54158;DHT22;40065;49.894;10.358;2023-04-24T14:36:49;14.80;95.00
54158;DHT22;40065;49.894;10.358;2023-04-24T14:41:51;14.00;96.40
54158;DHT22;40065;49.894;10.358;2023-04-24T14:46:53;14.00;96.10
54158;DHT22;40065;49.894;10.358;2023-04-24T14:51:55;13.80;96.10
54158;DHT22;40065;49.894;10.358;2023-04-24T14:56:57;13.60;95.60
54158;DHT22;40065;49.894;10.358;2023-04-24T15:01:59;14.10;95.90
54158;DHT22;40065;49.894;10.358;2023-04-24T15:07:16;14.40;94.30
54158;DHT22;40065;49.894;10.358;2023-04-24T15:12:18;14.50;94.80
54158;DHT22;40065;49.894;10.358;2023-04-24T15:17:20;14.40;95.00
54158;DHT22;40065;49.894;10.358;2023-04-24T15:22:21;13.80;96.20
54158;DHT22;40065;49.894;10.358;2023-04-24T15:27:23;13.50;97.40
54158;DHT22;40065;49.894;10.358;2023-04-24T15:32:25;13.40;96.60
54158;DHT22;40065;49.894;10.358;2023-04-24T15:37:27;13.50;96.20
54158;DHT22;40065;49.894;10.358;2023-04-24T15:42:29;13.50;95.70
54158;DHT22;40065;49.894;10.358;2023-04-24T15:47:32;13.20;96.10
54158;DHT22;40065;49.894;10.358;2023-04-24T15:52:34;14.20;95.40
54158;DHT22;40065;49.894;10.358;2023-04-24T15:57:36;14.90;94.60
54158;DHT22;40065;49.894;10.358;2023-04-24T16:02:38;15.00;94.10
54158;DHT22;40065;49.894;10.358;2023-04-24T16:07:41;14.70;94.90
54158;DHT22;40065;49.894;10.358;2023-04-24T16:12:42;14.10;95.80
54158;DHT22;40065;49.894;10.358;2023-04-24T16:17:44;13.70;96.80
54158;DHT22;40065;49.894;10.358;2023-04-24T16:22:46;13.10;99.10
54158;DHT22;40065;49.894;10.358;2023-04-24T16:27:49;12.50;99.90
54158;DHT22;40065;49.894;10.358;2023-04-24T16:32:53;12.10;99.90
54158;DHT22;40065;49.894;10.358;2023-04-24T16:37:55;12.00;99.90
54158;DHT22;40065;49.894;10.358;2023-04-24T16:42:56;12.10;99.90
54158;DHT22;40065;49.894;10.358;2023-04-24T16:47:58;12.60;99.90
54158;DHT22;40065;49.894;10.358;2023-04-24T16:53:01;13.00;99.90
54158;DHT22;40065;49.894;10.358;2023-04-24T16:58:02;13.00;99.90
54158;DHT22;40065;49.894;10.358;2023-04-24T17:03:04;13.10;99.90
54158;DHT22;40065;49.894;10.358;2023-04-24T17:08:07;13.50;99.90
54158;DHT22;40065;49.894;10.358;2023-04-24T17:13:09;13.50;99.90
54158;DHT22;40065;49.894;10.358;2023-04-24T17:18:10;13.20;99.90
54158;DHT22;40065;49.894;10.358;2023-04-24T17:23:12;13.00;99.90
54158;DHT22;40065;49.894;10.358;2023-04-24T17:28:28;12.70;99.90
54158;DHT22;40065;49.894;10.358;2023-04-24T17:33:30;12.80;99.50
54158;DHT22;40065;49.894;10.358;2023-04-24T17:38:32;13.00;99.70
54158;DHT22;40065;49.894;10.358;2023-04-24T17:43:34;13.10;99.40
54158;DHT22;40065;49.894;10.358;2023-04-24T17:48:36;13.00;99.60
54158;DHT22;40065;49.894;10.358;2023-04-24T17:53:38;12.70;99.80
54158;DHT22;40065;49.894;10.358;2023-04-24T17:58:41;12.60;99.90
54158;DHT22;40065;49.894;10.358;2023-04-24T18:03:43;12.60;99.90
54158;DHT22;40065;49.894;10.358;2023-04-24T18:08:45;12.60;99.90
54158;DHT22;40065;49.894;10.358;2023-04-24T18:13:47;12.50;99.90
54158;DHT22;40065;49.894;10.358;2023-04-24T18:18:50;12.40;99.90
54158;DHT22;40065;49.894;10.358;2023-04-24T18:23:51;12.20;99.90
54158;DHT22;40065;49.894;10.358;2023-04-24T18:28:54;11.90;99.90
54158;DHT22;40065;49.894;10.358;2023-04-24T18:33:56;11.70;99.90
54158;DHT22;40065;49.894;10.358;2023-04-24T18:38:58;11.50;99.90
54158;DHT22;40065;49.894;10.358;2023-04-24T18:44:00;11.40;99.90
54158;DHT22;40065;49.894;10.358;2023-04-24T18:49:02;11.30;99.90
54158;DHT22;40065;49.894;10.358;2023-04-24T18:54:05;11.10;99.90
54158;DHT22;40065;49.894;10.358;2023-04-24T18:59:07;11.20;99.90
54158;DHT22;40065;49.894;10.358;2023-04-24T19:04:09;11.10;99.90
54158;DHT22;40065;49.894;10.358;2023-04-24T19:09:11;11.00;99.90
54158;DHT22;40065;49.894;10.358;2023-04-24T19:14:13;10.90;99.90
54158;DHT22;40065;49.894;10.358;2023-04-24T19:19:16;10.80;99.90
54158;DHT22;40065;49.894;10.358;2023-04-24T19:24:18;10.60;99.90
54158;DHT22;40065;49.894;10.358;2023-04-24T19:29:21;10.70;99.90
54158;DHT22;40065;49.894;10.358;2023-04-24T19:34:24;10.60;99.90
54158;DHT22;40065;49.894;10.358;2023-04-24T19:39:25;10.70;99.90
54158;DHT22;40065;49.894;10.358;2023-04-24T19:44:27;10.90;99.90
54158;DHT22;40065;49.894;10.358;2023-04-24T19:49:29;10.90;99.90
54158;DHT22;40065;49.894;10.358;2023-04-24T19:54:31;10.90;99.90
54158;DHT22;40065;49.894;10.358;2023-04-24T19:59:33;10.80;99.90
54158;DHT22;40065;49.894;10.358;2023-04-24T20:04:34;10.80;99.90
54158;DHT22;40065;49.894;10.358;2023-04-24T20:09:37;10.60;99.90
54158;DHT22;40065;49.894;10.358;2023-04-24T20:14:39;10.60;99.90
54158;DHT22;40065;49.894;10.358;2023-04-24T20:19:41;10.50;99.90
54158;DHT22;40065;49.894;10.358;2023-04-24T20:24:43;10.50;99.90
54158;DHT22;40065;49.894;10.358;2023-04-24T20:29:46;10.60;99.90
54158;DHT22;40065;49.894;10.358;2023-04-24T20:34:48;10.70;99.90
54158;DHT22;40065;49.894;10.358;2023-04-24T20:39:50;10.60;99.90
54158;DHT22;40065;49.894;10.358;2023-04-24T20:44:52;10.60;99.90
54158;DHT22;40065;49.894;10.358;2023-04-24T20:49:54;10.60;99.90
54158;DHT22;40065;49.894;10.358;2023-04-24T20:54:55;10.60;99.90
54158;DHT22;40065;49.894;10.358;2023-04-24T20:59:57;10.70;99.90
54158;DHT22;40065;49.894;10.358;2023-04-24T21:04:59;10.70;99.90
54158;DHT22;40065;49.894;10.358;2023-04-24T21:10:01;10.80;99.90
54158;DHT22;40065;49.894;10.358;2023-04-24T21:15:03;10.70;99.90
54158;DHT22;40065;49.894;10.358;2023-04-24T21:20:07;10.80;99.90
54158;DHT22;40065;49.894;10.358;2023-04-24T21:25:09;10.80;99.90
54158;DHT22;40065;49.894;10.358;2023-04-24T21:30:12;10.70;99.90
54158;DHT22;40065;49.894;10.358;2023-04-24T21:35:13;10.80;99.90
54158;DHT22;40065;49.894;10.358;2023-04-24T21:40:15;10.80;99.90
54158;DHT22;40065;49.894;10.358;2023-04-24T21:45:17;10.80;99.90
54158;DHT22;40065;49.894;10.358;2023-04-24T21:50:19;10.70;99.90
54158;DHT22;40065;49.894;10.358;2023-04-24T21:55:21;10.60;99.90
54158;DHT22;40065;49.894;10.358;2023-04-24T22:00:23;10.70;99.90
54158;DHT22;40065;49.894;10.358;2023-04-24T22:05:25;10.50;99.90
54158;DHT22;40065;49.894;10.358;2023-04-24T22:10:27;10.50;99.90
54158;DHT22;40065;49.894;10.358;2023-04-24T22:15:29;10.60;99.90
54158;DHT22;40065;49.894;10.358;2023-04-24T22:20:31;10.50;99.90
54158;DHT22;40065;49.894;10.358;2023-04-24T22:25:36;10.50;99.90
54158;DHT22;40065;49.894;10.358;2023-04-24T22:30:38;10.40;99.90
54158;DHT22;40065;49.894;10.358;2023-04-24T22:35:39;10.30;99.90
54158;DHT22;40065;49.894;10.358;2023-04-24T22:40:41;10.30;99.90
54158;DHT22;40065;49.894;10.358;2023-04-24T22:45:43;10.20;99.90
54158;DHT22;40065;49.894;10.358;2023-04-24T22:50:45;10.20;99.90
54158;DHT22;40065;49.894;10.358;2023-04-24T22:55:47;10.20;99.90
54158;DHT22;40065;49.894;10.358;2023-04-24T23:00:49;10.00;99.90
54158;DHT22;40065;49.894;10.358;2023-04-24T23:05:50;9.90;99.90
54158;DHT22;40065;49.894;10.358;2023-04-24T23:10:52;9.90;99.90
54158;DHT22;40065;49.894;10.358;2023-04-24T23:15:54;9.80;99.90
54158;DHT22;40065;49.894;10.358;2023-04-24T23:20:56;9.90;99.90
54158;DHT22;40065;49.894;10.358;2023-04-24T23:25:58;9.80;99.90
54158;DHT22;40065;49.894;10.358;2023-04-24T23:31:00;9.80;99.90
54158;DHT22;40065;49.894;10.358;2023-04-24T23:36:02;9.80;99.90
54158;DHT22;40065;49.894;10.358;2023-04-24T23:41:04;9.70;99.90
54158;DHT22;40065;49.894;10.358;2023-04-24T23:46:06;9.70;99.90
54158;DHT22;40065;49.894;10.358;2023-04-24T23:51:08;9.60;99.90
54158;DHT22;40065;49.894;10.358;2023-04-24T23:56:10;9.60;99.90
